CheckWX is a tool to help pilots better visualize weather data.  It is not intended as a substitute for an official pre-flight weather briefing.

05:26:37 UTC

EGNM METAR
Leeds Bradford Airport
Leeds, United Kingdom
Current

15 hours ago

EGNM 031450Z 26019KT 9999 FEW030 09/02 Q1015
Observed
Apr-3 @ 14:50 UTC
Wind
  • 260° at 19 KTS
Visibility
10,000+ meters
Flight Rules
VFR
Cloud Levels
  • Few at 3,000' AGL
Temperature
C / 48°F
Dewpoint
C / 36°F
Humidity
62%
Altimeter
29.97" Hg
Pressure
1014.92 hPa
Previous

15 hours ago

EGNM 031420Z 26016KT 9999 SCT025 08/01 Q1015
Observed
Apr-3 @ 14:20 UTC
Wind
  • 260° at 16 KTS
Visibility
10,000+ meters
Flight Rules
VFR
Cloud Levels
  • Scattered at 2,500' AGL
Temperature
C / 46°F
Dewpoint
C / 34°F
Humidity
62%
Altimeter
29.97" Hg
Pressure
1014.92 hPa
Previous

16 hours ago

EGNM 031350Z 26016KT 9999 SCT022 08/02 Q1015
Observed
Apr-3 @ 13:50 UTC
Wind
  • 260° at 16 KTS
Visibility
10,000+ meters
Flight Rules
VFR
Cloud Levels
  • Scattered at 2,200' AGL
Temperature
C / 46°F
Dewpoint
C / 36°F
Humidity
66%
Altimeter
29.97" Hg
Pressure
1014.92 hPa